Time;durP1;ratioP1;P1;durP2;ratioP2;P2;SDS_P1;SDS_P2;PMS_P1;PMS_P2;Temp;Humidity;BMP_temperature;BMP_pressure;BME280_temperature;BME280_humidity;BME280_pressure;Samples;Min_cycle;Max_cycle;Signal;HPM_P1;HPM_P2
2022/02/13 00:01:10;;;;;;;19.80;10.93;;;;;;;1.19;80.98;101037.47;6188977;23;20013;-91
2022/02/13 00:03:37;;;;;;;20.45;10.10;;;;;;;1.14;80.10;101013.97;6191091;23;20021;-91
2022/02/13 00:06:06;;;;;;;20.05;10.43;;;;;;;1.31;80.11;101047.91;6191998;23;20009;-90
2022/02/13 00:08:38;;;;;;;21.00;11.45;;;;;;;1.30;80.07;101052.25;6163135;23;20017;-91
2022/02/13 00:11:16;;;;;;;23.73;12.15;;;;;;;1.11;79.91;101011.34;6188419;23;20029;-91
2022/02/13 00:13:46;;;;;;;23.98;12.27;;;;;;;0.98;79.42;101001.78;6190135;23;20013;-91
2022/02/13 00:16:20;;;;;;;20.92;11.23;;;;;;;0.87;79.87;100988.72;6189644;23;20040;-91
2022/02/13 00:18:51;;;;;;;19.63;10.32;;;;;;;0.86;79.52;100996.56;6190988;23;20105;-91
2022/02/13 00:21:50;;;;;;;23.80;11.07;;;;;;;0.96;79.95;101017.41;6199189;23;20094;-92
2022/02/13 00:24:32;;;;;;;18.60;10.35;;;;;;;0.81;80.15;100986.09;6205632;23;20004;-93
2022/02/13 00:27:03;;;;;;;21.30;11.68;;;;;;;0.95;80.54;101014.81;6206806;23;20011;-92
2022/02/13 00:29:41;;;;;;;19.95;10.63;;;;;;;0.91;80.91;101006.13;6203009;23;20019;-91
2022/02/13 00:32:16;;;;;;;18.92;10.20;;;;;;;1.07;80.94;101037.44;6193851;23;20540;-91
2022/02/13 00:34:44;;;;;;;18.35;10.75;;;;;;;0.83;80.65;101005.22;6201355;23;20021;-94
2022/02/13 00:37:15;;;;;;;22.02;11.02;;;;;;;0.81;80.60;101000.88;6201978;23;20032;-93
2022/02/13 00:39:44;;;;;;;21.05;10.60;;;;;;;0.88;81.35;101020.91;6190479;23;20021;-91
2022/02/13 00:42:14;;;;;;;18.08;10.35;;;;;;;0.77;81.30;100987.00;6185896;23;20040;-92
2022/02/13 00:44:44;;;;;;;22.55;11.20;;;;;;;0.70;81.22;100970.44;6157851;23;20017;-92
2022/02/13 00:47:13;;;;;;;22.65;11.07;;;;;;;1.02;81.04;101029.63;6182646;23;20025;-92
2022/02/13 00:49:48;;;;;;;22.58;12.05;;;;;;;0.87;81.38;101003.50;6183307;23;20017;-91
2022/02/13 00:52:32;;;;;;;25.23;12.65;;;;;;;0.58;82.34;100966.94;6185015;23;20044;-92
2022/02/13 00:55:03;;;;;;;;;;;;;;;0.87;82.69;101013.94;6182382;23;20024;-93
2022/02/13 00:57:43;;;;;;;24.10;13.20;;;;;;;0.50;83.06;100958.22;6185843;23;19916;-91
2022/02/13 01:01:13;;;;;;;28.73;14.68;;;;;;;0.72;83.06;100995.66;6188325;23;20108;-91
2022/02/13 01:03:49;;;;;;;24.48;12.02;;;;;;;0.48;84.06;100949.53;6062010;23;20027;-92
2022/02/13 01:06:20;;;;;;;25.27;13.63;;;;;;;0.62;83.77;100986.94;6184135;23;20503;-92
2022/02/13 01:08:58;;;;;;;23.00;13.43;;;;;;;0.67;84.12;101004.31;6185420;23;20080;-92
2022/02/13 01:11:46;;;;;;;24.80;13.57;;;;;;;0.49;84.47;100964.31;6162757;23;20021;-93
2022/02/13 01:14:13;;;;;;;22.80;13.13;;;;;;;0.77;85.06;101015.66;6183917;23;20449;-91
2022/02/13 01:16:45;;;;;;;;;;;;;;;0.84;85.31;101019.13;6187823;23;20073;-91
2022/02/13 01:19:13;;;;;;;24.45;13.68;;;;;;;0.61;85.45;100985.22;6160392;23;19924;-91
2022/02/13 01:21:43;;;;;;;27.48;13.82;;;;;;;0.50;85.34;100961.69;6185917;23;20645;-91
2022/02/13 01:24:14;;;;;;;24.92;13.70;;;;;;;0.46;85.91;100957.38;6184131;23;20043;-91
2022/02/13 01:26:51;;;;;;;24.35;13.88;;;;;;;0.47;85.66;100966.94;6188179;23;20083;-91
2022/02/13 01:29:19;;;;;;;25.45;15.23;;;;;;;0.76;85.83;101008.72;6184972;23;20017;-91
2022/02/13 01:31:59;;;;;;;24.15;14.38;;;;;;;0.59;85.79;100984.31;6187053;23;20217;-91
2022/02/13 01:34:29;;;;;;;24.23;14.52;;;;;;;0.33;85.59;100951.22;6182705;23;20508;-91
2022/02/13 01:37:09;;;;;;;24.05;14.32;;;;;;;0.51;86.20;100988.63;6177860;23;20260;-92
2022/02/13 01:39:39;;;;;;;25.90;15.02;;;;;;;0.53;86.20;100987.78;6184386;23;20075;-91
2022/02/13 01:42:09;;;;;;;24.70;14.68;;;;;;;0.29;86.71;100946.88;6183600;23;20092;-92
2022/02/13 01:44:40;;;;;;;26.73;14.48;;;;;;;0.47;86.70;100964.31;6184014;23;20334;-91
2022/02/13 01:47:11;;;;;;;19.50;12.13;;;;;;;0.47;86.81;100959.09;6185466;23;20332;-93
2022/02/13 01:49:38;;;;;;;27.00;14.95;;;;;;;0.57;86.79;100965.22;6186017;23;20043;-92
2022/02/13 01:52:08;;;;;;;28.45;15.30;;;;;;;0.32;87.20;100932.97;6158622;23;20112;-92
2022/02/13 01:54:38;;;;;;;24.27;14.68;;;;;;;0.68;87.15;100997.38;6182668;23;20043;-92
2022/02/13 01:57:09;;;;;;;27.83;15.27;;;;;;;0.30;86.83;100942.56;6183154;23;20024;-93
2022/02/13 01:59:42;;;;;;;24.88;15.40;;;;;;;0.60;86.21;100957.41;6185793;23;20017;-94
2022/02/13 02:02:12;;;;;;;30.23;16.42;;;;;;;0.64;86.62;100960.00;6184968;23;20476;-92
2022/02/13 02:04:42;;;;;;;29.38;15.45;;;;;;;0.78;86.63;100988.72;6183734;23;20021;-93
2022/02/13 02:07:09;;;;;;;30.13;16.40;;;;;;;0.40;86.73;100922.59;6182500;23;20052;-93
2022/02/13 02:09:37;;;;;;;28.77;15.30;;;;;;;0.52;86.90;100956.50;6184366;23;20067;-92
2022/02/13 02:12:07;;;;;;;27.42;16.13;;;;;;;0.70;87.08;100982.59;6191346;23;20029;-93
2022/02/13 02:14:36;;;;;;;30.10;16.40;;;;;;;0.48;86.94;100944.31;6202763;23;20008;-93
2022/02/13 02:17:05;;;;;;;32.97;16.70;;;;;;;0.57;86.78;100963.47;6205099;23;20026;-92
2022/02/13 02:19:36;;;;;;;30.95;17.10;;;;;;;0.41;86.91;100935.63;6201547;23;20096;-92
2022/02/13 02:22:09;;;;;;;31.63;16.75;;;;;;;0.57;87.30;100973.03;6190345;23;20069;-92
2022/02/13 02:24:36;;;;;;;;;;;;;;;0.55;88.17;100961.72;6190327;23;20017;-91
2022/02/13 02:27:03;;;;;;;26.85;15.93;;;;;;;0.54;87.95;100967.78;6201369;23;19976;-94
2022/02/13 02:29:32;;;;;;;28.38;16.05;;;;;;;0.43;88.42;100949.53;6209345;23;20051;-95
2022/02/13 02:32:00;;;;;;;28.70;16.27;;;;;;;0.39;87.89;100931.28;6204811;23;20040;-92
2022/02/13 02:34:31;;;;;;;27.60;15.82;;;;;;;0.35;87.46;100931.25;6190228;23;20093;-92
2022/02/13 02:37:05;;;;;;;26.58;15.75;;;;;;;0.13;88.17;100903.44;6189393;23;20048;-92
2022/02/13 02:39:33;;;;;;;31.35;15.75;;;;;;;0.51;88.13;100958.22;6187141;23;20025;-92
2022/02/13 02:42:01;;;;;;;28.10;16.17;;;;;;;0.40;88.14;100935.63;6185302;23;20017;-94
2022/02/13 02:44:28;;;;;;;27.27;16.52;;;;;;;0.43;88.39;100949.53;6187648;23;20025;-91
2022/02/13 02:46:55;;;;;;;30.25;16.50;;;;;;;0.00;88.57;100880.81;6186883;23;20029;-92
2022/02/13 02:49:31;;;;;;;28.50;16.63;;;;;;;0.16;88.93;100908.63;6186430;23;20017;-92
2022/02/13 02:52:00;;;;;;;27.92;16.45;;;;;;;0.12;89.29;100908.63;6187015;23;20024;-92
2022/02/13 02:54:32;;;;;;;30.23;16.95;;;;;;;0.11;90.05;100910.34;6183411;23;20017;-92
2022/02/13 02:56:59;;;;;;;27.58;15.32;;;;;;;0.11;89.98;100899.94;6186969;23;20001;-93
2022/02/13 02:59:26;;;;;;;27.90;16.33;;;;;;;0.13;89.30;100895.63;6185755;23;20100;-92
2022/02/13 03:01:55;;;;;;;26.25;15.45;;;;;;;0.03;89.46;100893.81;6184341;23;20017;-93
2022/02/13 03:04:34;;;;;;;22.13;12.53;;;;;;;-0.02;90.02;100880.81;6184164;23;20078;-92
2022/02/13 03:07:13;;;;;;;28.73;17.20;;;;;;;-0.05;90.48;100877.31;6184397;23;20028;-93
2022/02/13 03:09:40;;;;;;;31.95;17.48;;;;;;;-0.06;90.95;100880.78;6184350;23;20445;-93
2022/02/13 03:12:07;;;;;;;29.17;16.20;;;;;;;0.10;90.85;100908.63;6185117;23;20016;-92
2022/02/13 03:14:34;;;;;;;28.70;16.00;;;;;;;0.01;90.74;100892.94;6181752;23;20017;-92
2022/02/13 03:17:03;;;;;;;29.48;16.75;;;;;;;0.10;90.95;100907.75;6183892;23;20020;-91
2022/02/13 03:19:30;;;;;;;26.40;16.50;;;;;;;0.11;90.77;100915.56;6182873;23;20388;-93
2022/02/13 03:22:00;;;;;;;32.63;17.05;;;;;;;-0.04;91.02;100890.34;6184551;23;20021;-91
2022/02/13 03:24:27;;;;;;;27.80;16.48;;;;;;;0.11;90.06;100915.56;6183364;23;20096;-92
2022/02/13 03:26:57;;;;;;;25.92;16.27;;;;;;;-0.20;90.04;100859.03;6184017;23;20013;-92
2022/02/13 03:29:25;;;;;;;32.22;17.58;;;;;;;0.12;90.13;100924.25;6184342;23;20087;-92
2022/02/13 03:31:54;;;;;;;30.33;16.95;;;;;;;-0.23;90.49;100872.03;6185887;23;20044;-92
2022/02/13 03:34:21;;;;;;;30.85;16.92;;;;;;;-0.10;90.73;100902.44;6182570;23;20021;-94
2022/02/13 03:36:51;;;;;;;30.08;17.35;;;;;;;-0.39;91.38;100851.16;6188878;23;20385;-93
2022/02/13 03:39:21;;;;;;;28.42;16.98;;;;;;;-0.38;91.32;100858.09;6190169;23;20051;-93
2022/02/13 03:41:55;;;;;;;31.42;17.42;;;;;;;-0.11;91.38;100895.50;6192509;23;20013;-92
2022/02/13 03:44:22;;;;;;;30.67;17.83;;;;;;;-0.24;91.33;100878.97;6188236;23;20092;-91
2022/02/13 03:47:00;;;;;;;30.85;17.15;;;;;;;-0.25;92.13;100877.22;6190049;23;20025;-92
2022/02/13 03:49:31;;;;;;;33.15;17.73;;;;;;;-0.04;92.11;100902.50;6182787;23;20021;-93
2022/02/13 03:52:08;;;;;;;34.63;18.83;;;;;;;-0.24;92.12;100863.34;6183967;23;20023;-93
2022/02/13 03:54:35;;;;;;;31.48;19.23;;;;;;;-0.40;92.47;100839.00;6184133;23;20388;-92
2022/02/13 03:57:06;;;;;;;31.38;17.35;;;;;;;-0.43;92.44;100849.38;6158661;23;20043;-93
2022/02/13 03:59:43;;;;;;;33.05;19.08;;;;;;;-0.29;93.10;100877.19;6185006;23;20441;-92
2022/02/13 04:02:14;;;;;;;34.92;18.85;;;;;;;-0.09;92.49;100898.97;6184626;23;20043;-93
2022/02/13 04:04:49;;;;;;;33.85;18.85;;;;;;;-0.20;92.65;100878.13;6181158;23;20041;-92
2022/02/13 04:07:18;;;;;;;31.85;18.05;;;;;;;-0.24;92.76;100870.28;6135170;23;20017;-92
2022/02/13 04:09:47;;;;;;;29.75;18.65;;;;;;;-0.50;92.95;100829.41;6184304;23;20056;-92
2022/02/13 04:12:19;;;;;;;31.02;18.33;;;;;;;-0.47;92.95;100837.22;6183610;23;20017;-92
2022/02/13 04:14:53;;;;;;;35.53;19.05;;;;;;;-0.22;93.35;100886.78;6183174;23;20017;-92
2022/02/13 04:17:25;;;;;;;31.83;19.08;;;;;;;-0.32;93.30;100861.59;6183211;23;20021;-92
2022/02/13 04:20:00;;;;;;;32.72;18.10;;;;;;;-0.25;93.03;100871.16;6182756;23;20024;-93
2022/02/13 04:22:32;;;;;;;31.00;18.77;;;;;;;-0.31;92.72;100861.56;6185057;23;20013;-92
2022/02/13 04:25:01;;;;;;;;;;;;;;;-0.15;93.07;100885.94;6181388;23;20129;-92
2022/02/13 04:27:35;;;;;;;38.22;18.45;;;;;;;-0.21;92.69;100876.38;6182433;23;19920;-93
2022/02/13 04:30:06;;;;;;;35.90;18.67;;;;;;;-0.51;92.46;100821.59;6158708;23;20096;-93
2022/02/13 04:32:36;;;;;;;32.60;18.60;;;;;;;-0.45;92.84;100839.81;6183170;23;20032;-92
2022/02/13 04:35:07;;;;;;;31.02;18.27;;;;;;;-0.28;92.63;100872.00;6180429;23;20021;-93
2022/02/13 04:37:37;;;;;;;31.00;18.17;;;;;;;-0.54;92.90;100830.25;6182979;23;20017;-94
2022/02/13 04:40:05;;;;;;;32.50;19.70;;;;;;;-0.30;92.61;100878.94;6182378;23;20029;-93
2022/02/13 04:42:34;;;;;;;30.30;17.92;;;;;;;-0.34;92.87;100873.72;6182312;23;20079;-93
2022/02/13 04:45:04;;;;;;;35.80;18.63;;;;;;;-0.45;93.25;100863.25;6181769;23;20037;-94
2022/02/13 04:47:33;;;;;;;30.08;19.35;;;;;;;-0.49;93.48;100846.78;6184092;23;20048;-93
2022/02/13 04:50:06;;;;;;;31.02;18.08;;;;;;;-0.56;93.16;100828.50;6183675;23;20106;-92
2022/02/13 04:52:52;;;;;;;32.92;18.20;;;;;;;-0.41;93.39;100863.28;6182233;23;20021;-92
2022/02/13 04:55:22;;;;;;;36.78;19.23;;;;;;;-0.63;93.78;100818.94;6180992;23;20035;-93
2022/02/13 04:57:50;;;;;;;31.52;18.13;;;;;;;-0.81;93.93;100796.31;6185401;23;20075;-92
2022/02/13 05:00:18;;;;;;;34.22;20.10;;;;;;;-0.62;94.04;100825.88;6185005;23;20009;-92
2022/02/13 05:02:47;;;;;;;31.58;19.40;;;;;;;-0.49;94.45;100843.31;6189898;23;20055;-93
2022/02/13 05:05:15;;;;;;;39.17;20.02;;;;;;;-0.72;94.55;100804.16;6183972;23;20072;-94
2022/02/13 05:07:42;;;;;;;31.90;18.27;;;;;;;-0.77;94.42;100798.91;6183536;23;20068;-93
2022/02/13 05:10:09;;;;;;;31.33;19.35;;;;;;;-0.47;94.58;100865.81;6158671;23;20071;-93
2022/02/13 05:12:37;;;;;;;30.75;18.23;;;;;;;-0.64;94.51;100835.41;6184799;23;20071;-92
2022/02/13 05:15:04;;;;;;;33.05;17.98;;;;;;;-0.49;94.13;100851.09;6184105;23;20040;-93
2022/02/13 05:17:44;;;;;;;31.67;18.20;;;;;;;-0.76;94.27;100808.47;6183574;23;20013;-92
2022/02/13 05:20:22;;;;;;;33.55;20.15;;;;;;;-0.83;94.26;100796.31;6184596;23;20457;-93
2022/02/13 05:22:49;;;;;;;33.83;18.58;;;;;;;-0.74;93.17;100798.94;6184409;23;20024;-92
2022/02/13 05:25:24;;;;;;;35.95;18.23;;;;;;;-0.79;93.24;100789.41;6183973;23;20084;-93
2022/02/13 05:27:51;;;;;;;32.08;18.55;;;;;;;-0.80;93.05;100790.25;6185723;23;20028;-94
2022/02/13 05:30:21;;;;;;;30.50;18.55;;;;;;;-0.69;93.33;100817.19;6184536;23;20032;-93
2022/02/13 05:32:49;;;;;;;35.22;19.35;;;;;;;-0.73;92.90;100807.63;6185987;23;20017;-93
2022/02/13 05:35:16;;;;;;;35.40;19.33;;;;;;;-0.87;92.96;100793.66;6185964;23;20041;-93
2022/02/13 05:37:49;;;;;;;33.88;19.27;;;;;;;-0.70;93.29;100825.84;6162987;23;20028;-92
2022/02/13 05:40:21;;;;;;;30.55;18.35;;;;;;;-0.79;93.39;100807.59;6187177;23;20032;-92
2022/02/13 05:42:54;;;;;;;32.03;18.45;;;;;;;-0.77;93.42;100785.91;6164044;23;20013;-94
2022/02/13 05:45:23;;;;;;;33.67;19.17;;;;;;;-0.76;93.26;100789.38;6188730;23;20464;-93
2022/02/13 05:47:53;;;;;;;31.63;19.27;;;;;;;-0.90;93.52;100762.44;6188498;23;20027;-96
2022/02/13 05:50:21;;;;;;;32.42;19.10;;;;;;;-0.72;93.69;100798.94;6191764;23;20028;-92
2022/02/13 05:52:48;;;;;;;31.88;19.50;;;;;;;-0.79;92.73;100779.84;6162845;23;20089;-92
2022/02/13 05:55:15;;;;;;;33.80;18.15;;;;;;;-0.65;92.75;100800.72;6189190;23;20017;-93
2022/02/13 05:57:44;;;;;;;32.70;18.48;;;;;;;-0.67;92.95;100810.25;6193683;23;20452;-92
2022/02/13 06:00:13;;;;;;;31.63;17.40;;;;;;;-0.90;93.16;100775.44;6191198;23;20027;-92
2022/02/13 06:02:41;;;;;;;29.85;17.77;;;;;;;-0.91;92.95;100777.19;6195708;23;20041;-92
2022/02/13 06:05:15;;;;;;;36.25;19.42;;;;;;;-0.81;93.38;100796.31;6199614;23;20017;-94
2022/02/13 06:07:48;;;;;;;31.80;18.60;;;;;;;-0.76;93.27;100797.19;6198520;23;20021;-94
2022/02/13 06:10:15;;;;;;;27.80;18.33;;;;;;;-0.92;93.49;100778.03;6188159;23;20032;-92
2022/02/13 06:12:50;;;;;;;35.10;18.90;;;;;;;-0.82;93.52;100789.38;6186559;23;20021;-93
2022/02/13 06:15:19;;;;;;;31.75;18.08;;;;;;;-1.04;93.36;100757.19;6186338;23;20479;-93
2022/02/13 06:17:57;;;;;;;31.42;17.60;;;;;;;-0.97;93.12;100761.56;6185640;23;20017;-92
2022/02/13 06:20:26;;;;;;;33.20;18.30;;;;;;;-0.79;92.84;100792.00;6193142;23;20017;-94
2022/02/13 06:22:57;;;;;;;34.15;17.77;;;;;;;-0.78;92.82;100794.56;6202124;23;20028;-92
2022/02/13 06:25:30;;;;;;;29.85;18.17;;;;;;;-0.90;93.26;100775.44;6190775;23;20438;-93
2022/02/13 06:28:01;;;;;;;31.00;18.10;;;;;;;-0.85;92.89;100792.81;6188810;23;20023;-92
2022/02/13 06:30:33;;;;;;;31.10;17.55;;;;;;;-0.80;92.52;100785.94;6184442;23;20765;-93
2022/02/13 06:33:02;;;;;;;32.78;18.30;;;;;;;-0.94;92.80;100773.69;6184797;23;20024;-92
2022/02/13 06:35:38;;;;;;;33.67;18.50;;;;;;;-0.99;92.83;100754.63;6161930;23;20013;-94
2022/02/13 06:38:16;;;;;;;31.88;18.15;;;;;;;-0.73;92.40;100799.81;6185349;23;20068;-93
2022/02/13 06:40:45;;;;;;;28.48;17.15;;;;;;;-0.88;93.07;100781.53;6187470;23;20103;-93
2022/02/13 06:43:26;;;;;;;33.55;18.13;;;;;;;-1.05;92.86;100737.25;6186207;23;20096;-93
2022/02/13 06:45:58;;;;;;;31.95;17.45;;;;;;;-0.63;92.18;100809.38;6182770;23;20048;-93
2022/02/13 06:48:30;;;;;;;27.20;17.55;;;;;;;-1.00;91.89;100732.94;6185240;23;20028;-92
2022/02/13 06:51:07;;;;;;;28.73;17.67;;;;;;;-1.04;92.10;100740.72;6185071;23;20013;-92
2022/02/13 06:53:38;;;;;;;30.00;17.10;;;;;;;-0.82;92.08;100773.78;6184566;23;20091;-93
2022/02/13 06:56:08;;;;;;;32.75;17.27;;;;;;;-0.86;91.45;100762.47;6184147;23;20083;-92
2022/02/13 06:58:48;;;;;;;31.15;17.88;;;;;;;-0.68;91.88;100798.13;6185806;23;20040;-93
2022/02/13 07:01:33;;;;;;;;;;;;;;;;;;;;;
2022/02/13 07:04:06;;;;;;;27.67;17.48;;;;;;;-1.09;91.47;100736.34;6202279;23;20017;-91
2022/02/13 07:06:35;;;;;;;31.85;17.95;;;;;;;-1.09;91.67;100731.16;6166482;23;20067;-92
2022/02/13 07:09:07;;;;;;;26.80;17.35;;;;;;;-1.02;92.02;100741.59;6174949;23;20492;-91
2022/02/13 07:11:34;;;;;;;32.28;18.25;;;;;;;-0.84;91.80;100781.56;6207980;23;20017;-92
2022/02/13 07:14:04;;;;;;;32.80;18.50;;;;;;;-1.11;91.95;100740.69;6206437;23;20033;-94
2022/02/13 07:16:41;;;;;;;33.03;17.95;;;;;;;-0.91;91.47;100769.38;6207140;23;20017;-93
2022/02/13 07:19:45;;;;;;;32.20;18.40;;;;;;;-0.72;91.33;100791.16;6209635;23;20017;-92
2022/02/13 07:22:28;;;;;;;30.02;18.13;;;;;;;-0.99;91.59;100726.03;6165076;23;20025;-91
2022/02/13 07:24:57;;;;;;;30.25;19.10;;;;;;;-0.86;91.45;100751.22;6186421;23;20120;-93
2022/02/13 07:27:27;;;;;;;31.90;17.95;;;;;;;-0.88;91.95;100746.00;6188528;23;20017;-92
2022/02/13 07:29:56;;;;;;;33.58;18.48;;;;;;;-0.65;91.80;100766.06;6185429;23;20013;-92
2022/02/13 07:32:25;;;;;;;30.85;18.80;;;;;;;-0.59;91.42;100758.25;6185768;23;20031;-92
2022/02/13 07:34:55;;;;;;;33.78;18.85;;;;;;;-0.73;90.41;100716.59;6185720;23;20076;-94
2022/02/13 07:37:25;;;;;;;31.30;18.52;;;;;;;-0.48;90.14;100746.19;6181295;23;20445;-92
2022/02/13 07:39:53;;;;;;;30.70;18.48;;;;;;;-0.24;90.22;100776.59;6158006;23;20650;-91
2022/02/13 07:42:20;;;;;;;31.08;18.38;;;;;;;-0.61;89.62;100708.84;6158100;23;20700;-91
2022/02/13 07:45:02;;;;;;;31.92;18.60;;;;;;;-0.64;90.41;100714.06;6157304;23;20333;-89
2022/02/13 07:47:32;;;;;;;33.42;18.55;;;;;;;-0.21;89.67;100785.28;6156100;23;20508;-92
2022/02/13 07:50:00;;;;;;;30.08;18.23;;;;;;;-0.52;89.12;100716.69;6184280;23;20464;-90
2022/02/13 07:52:49;;;;;;;30.65;18.88;;;;;;;-0.27;89.38;100761.84;6185853;23;20433;-91
2022/02/13 07:55:26;;;;;;;29.02;18.75;;;;;;;-0.23;88.54;100758.38;6184991;23;20027;-91
2022/02/13 07:57:55;;;;;;;26.88;17.40;;;;;;;-0.30;87.77;100740.13;6183070;23;20023;-91
2022/02/13 08:00:27;;;;;;;30.60;18.40;;;;;;;-0.30;87.24;100729.72;6186663;23;20021;-89
2022/02/13 08:02:54;;;;;;;28.95;18.40;;;;;;;-0.25;87.39;100720.22;6183381;23;20390;-92
2022/02/13 08:05:24;;;;;;;29.30;18.33;;;;;;;-0.15;86.92;100730.63;6132690;23;20021;-91
2022/02/13 08:08:04;;;;;;;29.15;18.20;;;;;;;0.10;86.17;100768.00;6188853;23;20059;-92
2022/02/13 08:10:33;;;;;;;29.13;18.15;;;;;;;0.15;85.71;100758.47;6160754;23;20044;-92
2022/02/13 08:13:30;;;;;;;32.40;18.77;;;;;;;0.10;86.06;100739.34;6191930;23;20072;-91
2022/02/13 08:16:07;;;;;;;29.67;18.25;;;;;;;0.33;85.41;100761.06;6190731;23;20376;-91
2022/02/13 08:18:39;;;;;;;31.90;18.90;;;;;;;0.31;84.53;100752.41;6190446;23;20021;-91
2022/02/13 08:21:09;;;;;;;31.85;18.67;;;;;;;0.39;84.72;100746.31;6188731;23;20025;-90
2022/02/13 08:23:37;;;;;;;32.22;18.25;;;;;;;0.61;84.73;100782.81;6183632;23;20021;-92
2022/02/13 08:26:10;;;;;;;31.63;18.88;;;;;;;0.65;83.93;100773.22;6185016;23;20021;-93
2022/02/13 08:28:38;;;;;;;28.60;17.90;;;;;;;0.47;84.29;100718.53;6158775;23;20036;-91
2022/02/13 08:31:08;;;;;;;30.25;18.10;;;;;;;0.82;83.78;100761.03;6160505;23;20027;-91
2022/02/13 08:33:40;;;;;;;28.00;17.88;;;;;;;1.14;84.52;100757.50;6185609;23;20064;-92
2022/02/13 08:36:09;;;;;;;30.50;18.17;;;;;;;1.22;82.40;100725.31;6184659;23;20064;-93
2022/02/13 08:38:42;;;;;;;27.70;17.65;;;;;;;1.84;79.02;100728.47;6187234;23;20117;-92
2022/02/13 08:41:17;;;;;;;28.17;16.88;;;;;;;2.15;79.16;100722.16;6160181;23;20021;-92
2022/02/13 08:43:49;;;;;;;;;;;;;;;2.78;77.69;100762.56;6188197;23;20455;-92
2022/02/13 08:46:22;;;;;;;22.83;15.95;;;;;;;2.85;76.30;100733.72;6186254;23;19920;-92
2022/02/13 08:49:00;;;;;;;23.90;15.82;;;;;;;3.36;73.86;100761.09;6187083;23;20025;-92
2022/02/13 08:51:28;;;;;;;24.50;17.00;;;;;;;3.17;71.80;100714.19;6161705;23;20043;-91
2022/02/13 08:54:02;;;;;;;24.92;16.08;;;;;;;3.60;68.99;100744.22;6191084;23;20081;-94
2022/02/13 08:56:48;;;;;;;24.20;16.33;;;;;;;3.40;69.89;100699.97;6187748;23;20061;-92
2022/02/13 08:59:17;;;;;;;23.85;16.08;;;;;;;3.73;69.30;100724.84;6187960;23;20461;-91
2022/02/13 09:01:51;;;;;;;24.90;17.02;;;;;;;3.95;67.91;100755.06;6186563;23;20028;-91
2022/02/13 09:04:24;;;;;;;23.95;17.02;;;;;;;3.60;67.73;100711.03;6187889;23;20205;-92
2022/02/13 09:06:54;;;;;;;25.33;16.23;;;;;;;3.37;69.46;100684.28;6183653;23;20020;-92
2022/02/13 09:09:24;;;;;;;24.45;16.73;;;;;;;3.63;67.40;100703.13;6188956;23;20017;-93
2022/02/13 09:11:50;;;;;;;24.70;16.42;;;;;;;3.72;68.36;100703.00;6188275;23;20024;-94
2022/02/13 09:14:18;;;;;;;24.83;16.77;;;;;;;3.90;67.99;100696.66;6191764;23;20024;-91
2022/02/13 09:16:52;;;;;;;28.52;17.63;;;;;;;3.80;66.61;100659.22;6198438;23;20025;-94
2022/02/13 09:19:24;;;;;;;24.63;16.77;;;;;;;4.10;66.82;100688.44;6115741;23;20021;-94
2022/02/13 09:21:59;;;;;;;24.85;16.63;;;;;;;4.39;65.98;100717.72;6113370;23;20042;-95
2022/02/13 09:24:26;;;;;;;22.95;16.60;;;;;;;4.17;64.83;100654.28;6115388;23;20073;-94
2022/02/13 09:27:05;;;;;;;22.95;16.00;;;;;;;4.41;64.74;100687.06;6112576;23;20081;-91
2022/02/13 09:29:34;;;;;;;24.98;16.48;;;;;;;4.21;64.33;100676.06;6116617;23;20038;-94
2022/02/13 09:32:03;;;;;;;23.77;15.73;;;;;;;4.18;64.85;100720.66;6117886;23;20042;-96
2022/02/13 09:34:35;;;;;;;21.07;14.37;;;;;;;3.93;67.40;100686.13;6121727;23;20034;-96
2022/02/13 09:37:03;;;;;;;24.42;16.00;;;;;;;3.93;67.79;100673.03;6117887;23;20034;-95
2022/02/13 09:39:44;;;;;;;22.38;16.77;;;;;;;4.52;66.52;100697.38;6115323;23;20014;-93
2022/02/13 09:42:12;;;;;;;21.42;15.32;;;;;;;5.00;65.89;100690.38;6111486;23;20029;-94
2022/02/13 09:44:53;;;;;;;24.67;15.73;;;;;;;5.46;63.55;100697.31;6171485;23;20132;-92
2022/02/13 09:47:37;;;;;;;23.25;16.10;;;;;;;5.71;61.83;100677.47;6204681;23;20021;-94
2022/02/13 09:50:05;;;;;;;22.27;15.55;;;;;;;6.02;60.51;100687.31;6202000;23;20044;-90
2022/02/13 09:52:34;;;;;;;22.08;15.95;;;;;;;6.06;59.76;100668.78;6189629;23;20063;-91
2022/02/13 09:55:15;;;;;;;21.77;14.75;;;;;;;6.32;59.77;100699.72;6184075;23;20345;-90
2022/02/13 09:58:00;;;;;;;23.48;16.27;;;;;;;6.35;58.93;100652.28;6185895;23;20021;-90
2022/02/13 10:01:02;;;;;;;24.42;15.70;;;;;;;7.32;56.16;100675.06;6187773;23;20021;-95
2022/02/13 10:03:38;;;;;;;26.40;16.15;;;;;;;7.12;56.60;100657.19;6188061;23;20013;-91
2022/02/13 10:06:42;;;;;;;20.90;14.80;;;;;;;7.26;54.55;100633.97;6181311;23;20536;-92
2022/02/13 10:09:43;;;;;;;23.42;15.07;;;;;;;7.80;56.05;100682.41;6186116;23;20139;-89
2022/02/13 10:12:29;;;;;;;21.20;14.77;;;;;;;8.40;52.90;100674.31;6195442;23;20031;-90
2022/02/13 10:15:00;;;;;;;19.80;14.88;;;;;;;8.03;52.60;100608.69;6185150;23;20043;-91
2022/02/13 10:18:10;;;;;;;19.33;14.88;;;;;;;8.32;53.33;100639.44;6180114;23;20043;-93
2022/02/13 10:23:50;;;;;;;;;;;;;;;;;;;;;
2022/02/13 10:27:06;;;;;;;;;;;;;;;;;;;;;
2022/02/13 10:30:32;;;;;;;19.25;14.27;;;;;;;10.32;47.28;100645.94;6187846;23;20071;-90
2022/02/13 10:34:04;;;;;;;;;;;;;;;;;;;;;
2022/02/13 10:40:48;;;;;;;19.27;14.13;;;;;;;10.07;47.02;100598.44;5929335;24;20024;-94
2022/02/13 10:43:27;;;;;;;20.33;14.45;;;;;;;9.67;48.18;100609.78;5932189;24;20116;-92
2022/02/13 10:46:22;;;;;;;21.95;14.85;;;;;;;9.04;48.55;100588.41;5932101;24;20033;-92
2022/02/13 10:49:14;;;;;;;22.70;15.40;;;;;;;8.92;50.30;100633.78;5913431;24;20021;-92
2022/02/13 10:51:46;;;;;;;20.67;13.65;;;;;;;8.44;51.15;100602.94;5934548;24;20117;-93
2022/02/13 10:54:35;;;;;;;17.75;13.82;;;;;;;8.32;51.79;100602.50;6046578;23;20059;-91
2022/02/13 10:57:27;;;;;;;22.80;15.50;;;;;;;8.00;53.40;100598.28;6100665;23;20033;-92
2022/02/13 11:00:07;;;;;;;21.38;15.20;;;;;;;7.91;53.61;100609.97;6102225;23;20014;-92
2022/02/13 11:02:53;;;;;;;21.38;13.88;;;;;;;7.54;54.01;100562.00;6082527;23;20026;-92
2022/02/13 11:05:48;;;;;;;18.95;13.35;;;;;;;7.54;54.91;100581.31;6102695;23;20045;-92
2022/02/13 11:08:17;;;;;;;19.95;13.95;;;;;;;7.19;56.51;100553.41;6072445;23;20046;-94
2022/02/13 11:11:01;;;;;;;21.13;13.07;;;;;;;6.97;56.09;100520.72;6080052;23;20018;-94
2022/02/13 11:13:36;;;;;;;21.13;14.57;;;;;;;7.26;56.89;100569.88;6107462;23;20055;-91
2022/02/13 11:16:49;;;;;;;20.02;13.20;;;;;;;7.07;56.34;100524.84;6102841;23;20077;-93
2022/02/13 11:19:24;;;;;;;20.00;13.50;;;;;;;7.01;57.08;100517.09;6104487;23;20033;-94
2022/02/13 11:21:58;;;;;;;22.73;15.15;;;;;;;7.17;57.34;100535.94;6083554;23;20022;-94
2022/02/13 11:24:35;;;;;;;19.02;13.40;;;;;;;7.06;57.58;100498.53;6115028;23;20139;-93
2022/02/13 11:28:10;;;;;;;19.60;13.90;;;;;;;7.15;57.77;100520.19;6108904;23;20058;-93
2022/02/13 11:30:42;;;;;;;24.25;14.57;;;;;;;7.45;57.07;100549.09;6059955;23;20018;-92
2022/02/13 11:33:38;;;;;;;19.60;14.05;;;;;;;7.05;56.76;100481.88;6104900;23;20022;-92
2022/02/13 11:36:13;;;;;;;17.63;13.70;;;;;;;7.27;57.21;100508.38;6095012;23;20022;-92
2022/02/13 11:38:56;;;;;;;19.77;14.38;;;;;;;7.33;57.40;100509.06;6104831;23;20083;-92
2022/02/13 11:41:46;;;;;;;21.67;15.02;;;;;;;7.60;56.90;100533.66;6132514;23;20069;-93
2022/02/13 11:44:41;;;;;;;23.77;15.10;;;;;;;7.33;57.12;100468.69;6134896;23;20077;-92
2022/02/13 11:47:16;;;;;;;22.90;14.63;;;;;;;7.81;56.58;100518.91;6134422;23;20022;-91
2022/02/13 11:50:19;;;;;;;18.27;13.00;;;;;;;7.78;56.72;100507.59;6133648;23;20025;-91
2022/02/13 11:53:09;;;;;;;21.23;14.30;;;;;;;7.69;56.99;100459.56;6132950;23;20018;-91
2022/02/13 11:55:42;;;;;;;;;;;;;;;7.99;56.63;100493.69;6137068;23;20022;-93
2022/02/13 11:58:16;;;;;;;19.67;13.63;;;;;;;7.99;56.46;100486.66;6138360;23;19921;-91
2022/02/13 12:01:03;;;;;;;22.40;13.70;;;;;;;7.86;55.94;100466.03;6140857;23;20444;-92
2022/02/13 12:03:45;;;;;;;19.35;13.15;;;;;;;8.01;56.59;100481.31;6140950;23;20022;-92